Time;durP1;ratioP1;P1;durP2;ratioP2;P2;SDS_P1;SDS_P2;PMS_P1;PMS_P2;Temp;Humidity;BMP_temperature;BMP_pressure;BME280_temperature;BME280_humidity;BME280_pressure;Samples;Min_cycle;Max_cycle;Signal;HPM_P1;HPM_P2
2023/07/08 00:01:31;;;;;;;4.50;2.30;;;20.10;99.60;;;;;;4167361;28;20217;-77
2023/07/08 00:03:33;;;;;;;5.30;2.90;;;20.10;99.90;;;;;;4170391;28;20666;-77
2023/07/08 00:05:35;;;;;;;6.10;3.13;;;20.00;99.90;;;;;;4160825;28;20299;-77
2023/07/08 00:07:39;;;;;;;3.23;2.70;;;20.00;99.90;;;;;;4168331;28;20229;-78
2023/07/08 00:09:41;;;;;;;3.33;2.57;;;20.00;99.90;;;;;;4165985;28;20214;-77
2023/07/08 00:11:43;;;;;;;4.47;2.90;;;19.90;99.90;;;;;;4163525;28;20688;-77
2023/07/08 00:13:45;;;;;;;4.23;2.80;;;19.90;99.90;;;;;;4163987;28;20307;-77
2023/07/08 00:15:47;;;;;;;3.90;2.50;;;19.90;99.90;;;;;;4164179;28;20333;-77
2023/07/08 00:17:49;;;;;;;3.53;2.70;;;19.80;99.90;;;;;;4161604;28;20241;-76
2023/07/08 00:19:54;;;;;;;5.33;2.93;;;19.80;99.90;;;;;;4164121;28;20233;-76
2023/07/08 00:21:56;;;;;;;4.30;2.90;;;19.80;99.90;;;;;;4163351;28;20332;-76
2023/07/08 00:24:02;;;;;;;4.57;2.90;;;19.70;99.90;;;;;;4168716;28;20206;-77
2023/07/08 00:26:11;;;;;;;5.90;2.80;;;19.70;99.90;;;;;;4171838;28;20782;-76
2023/07/08 00:28:17;;;;;;;4.00;2.60;;;19.70;99.90;;;;;;4166184;28;20597;-77
2023/07/08 00:30:20;;;;;;;3.60;2.70;;;19.70;99.90;;;;;;4164171;28;20206;-76
2023/07/08 00:32:22;;;;;;;5.03;2.57;;;19.70;99.90;;;;;;4157418;28;20230;-76
2023/07/08 00:34:24;;;;;;;5.50;3.03;;;19.60;99.90;;;;;;4170995;28;20222;-76
2023/07/08 00:36:28;;;;;;;4.83;3.27;;;19.60;99.90;;;;;;4166168;28;20237;-75
2023/07/08 00:38:30;;;;;;;5.00;3.30;;;19.60;99.90;;;;;;4166133;28;20322;-77
2023/07/08 00:40:34;;;;;;;5.00;2.97;;;19.50;99.90;;;;;;4158704;28;20236;-76
2023/07/08 00:42:36;;;;;;;4.47;3.13;;;19.50;99.90;;;;;;4166116;28;20561;-76
2023/07/08 00:44:39;;;;;;;4.10;3.17;;;19.50;99.90;;;;;;4164584;28;20257;-76
2023/07/08 00:46:55;;;;;;;4.57;2.83;;;19.50;99.90;;;;;;4166995;28;20278;-76
2023/07/08 00:49:04;;;;;;;5.33;3.07;;;19.40;99.90;;;;;;4160305;28;20241;-75
2023/07/08 00:51:10;;;;;;;3.33;2.47;;;19.40;99.90;;;;;;4161754;28;20211;-76
2023/07/08 00:53:24;;;;;;;4.40;2.70;;;19.40;99.90;;;;;;4166941;28;20712;-73
2023/07/08 00:55:26;;;;;;;3.77;2.70;;;19.30;99.90;;;;;;4170399;28;20821;-73
2023/07/08 00:57:32;;;;;;;4.60;2.87;;;19.30;99.90;;;;;;4161517;28;20298;-73
2023/07/08 00:59:39;;;;;;;4.13;2.60;;;19.30;99.90;;;;;;4159656;28;20727;-76
2023/07/08 01:01:44;;;;;;;3.77;3.00;;;19.20;99.90;;;;;;4164080;28;20207;-76
2023/07/08 01:03:50;;;;;;;3.90;2.70;;;19.20;99.90;;;;;;4164111;28;20252;-76
2023/07/08 01:05:56;;;;;;;3.87;2.80;;;19.20;99.90;;;;;;4166416;28;20304;-76
2023/07/08 01:08:01;;;;;;;4.07;2.70;;;19.20;99.90;;;;;;4163159;28;20738;-77
2023/07/08 01:10:07;;;;;;;6.40;2.80;;;19.10;99.90;;;;;;4159002;28;20202;-76
2023/07/08 01:12:12;;;;;;;5.57;3.07;;;19.10;99.90;;;;;;4166699;28;20639;-76
2023/07/08 01:14:20;;;;;;;4.13;2.73;;;19.10;99.90;;;;;;4162390;28;20840;-76
2023/07/08 01:16:25;;;;;;;4.03;2.47;;;19.10;99.90;;;;;;4163214;28;20609;-76
2023/07/08 01:18:28;;;;;;;5.27;2.73;;;19.00;99.90;;;;;;4167057;28;20327;-76
2023/07/08 01:20:30;;;;;;;5.07;3.00;;;19.00;99.90;;;;;;4155915;28;20305;-76
2023/07/08 01:22:35;;;;;;;4.00;2.57;;;19.00;99.90;;;;;;4166851;28;20327;-76
2023/07/08 01:24:41;;;;;;;4.40;2.73;;;19.00;99.90;;;;;;4163929;28;20207;-76
2023/07/08 01:26:45;;;;;;;6.93;3.30;;;19.00;99.90;;;;;;4162129;28;20238;-76
2023/07/08 01:28:47;;;;;;;5.47;3.03;;;18.90;99.90;;;;;;4162973;28;20900;-76
2023/07/08 01:30:50;;;;;;;4.67;3.30;;;18.90;99.90;;;;;;4166343;28;20208;-76
2023/07/08 01:32:56;;;;;;;5.93;3.03;;;18.90;99.90;;;;;;4164490;28;20273;-76
2023/07/08 01:35:01;;;;;;;4.90;2.90;;;18.80;99.90;;;;;;4161686;28;20608;-76
2023/07/08 01:37:05;;;;;;;3.63;2.73;;;18.80;99.90;;;;;;4166341;28;20267;-75
2023/07/08 01:39:12;;;;;;;4.77;2.90;;;18.80;99.90;;;;;;4166119;28;20240;-76
2023/07/08 01:41:16;;;;;;;4.37;2.70;;;18.80;99.90;;;;;;4162140;28;20560;-76
2023/07/08 01:43:17;;;;;;;3.80;2.57;;;18.70;99.90;;;;;;4158827;28;20210;-77
2023/07/08 01:45:23;;;;;;;5.57;3.27;;;18.70;99.90;;;;;;4161332;28;20216;-76
2023/07/08 01:47:25;;;;;;;3.00;2.47;;;18.70;99.90;;;;;;4159654;28;20220;-76
2023/07/08 01:49:28;;;;;;;3.80;2.70;;;18.70;99.90;;;;;;4163296;28;20217;-76
2023/07/08 01:51:30;;;;;;;4.13;2.73;;;18.60;99.90;;;;;;4165755;28;20212;-78
2023/07/08 01:53:33;;;;;;;5.23;2.70;;;18.60;99.90;;;;;;4162575;28;20216;-76
2023/07/08 01:55:36;;;;;;;4.17;2.63;;;18.60;99.90;;;;;;4162980;28;20205;-76
2023/07/08 01:57:38;;;;;;;4.37;2.67;;;18.50;99.90;;;;;;4165015;28;20202;-76
2023/07/08 01:59:40;;;;;;;3.70;2.80;;;18.50;99.90;;;;;;4163025;28;20297;-76
2023/07/08 02:01:41;;;;;;;5.20;3.40;;;18.40;99.90;;;;;;4168420;28;20300;-76
2023/07/08 02:03:46;;;;;;;3.00;2.60;;;18.40;99.90;;;;;;4163223;28;20218;-76
2023/07/08 02:05:48;;;;;;;4.13;2.80;;;18.40;99.90;;;;;;4166203;28;20235;-76
2023/07/08 02:07:49;;;;;;;4.47;2.97;;;18.30;99.90;;;;;;4164080;28;20222;-78
2023/07/08 02:09:50;;;;;;;3.80;2.60;;;18.30;99.90;;;;;;4165871;28;20290;-77
2023/07/08 02:11:54;;;;;;;4.17;2.77;;;18.30;99.90;;;;;;4162249;28;20914;-76
2023/07/08 02:13:56;;;;;;;5.00;3.10;;;18.20;99.90;;;;;;4164226;28;20223;-76
2023/07/08 02:15:58;;;;;;;3.70;2.63;;;18.20;99.90;;;;;;4156492;28;20271;-77
2023/07/08 02:17:59;;;;;;;4.30;2.80;;;18.20;99.90;;;;;;4167104;28;20908;-75
2023/07/08 02:20:00;;;;;;;4.27;2.67;;;18.10;99.90;;;;;;4166473;28;20205;-76
2023/07/08 02:22:05;;;;;;;5.93;2.77;;;18.10;99.90;;;;;;4167024;28;20234;-76
2023/07/08 02:24:07;;;;;;;4.93;2.67;;;18.10;99.90;;;;;;4163751;28;20272;-76
2023/07/08 02:26:09;;;;;;;3.93;2.80;;;18.00;99.90;;;;;;4162089;28;20600;-76
2023/07/08 02:28:12;;;;;;;3.80;2.57;;;18.00;99.90;;;;;;4163085;28;20249;-76
2023/07/08 02:30:14;;;;;;;4.63;2.67;;;18.00;99.90;;;;;;4162207;28;20296;-76
2023/07/08 02:32:16;;;;;;;4.00;2.70;;;17.90;99.90;;;;;;4164384;28;20233;-76
2023/07/08 02:34:18;;;;;;;3.93;2.50;;;17.90;99.90;;;;;;4161611;28;20224;-77
2023/07/08 02:36:20;;;;;;;4.77;2.80;;;17.90;99.90;;;;;;4155728;28;20220;-77
2023/07/08 02:38:22;;;;;;;4.63;2.77;;;17.80;99.90;;;;;;4167827;28;20208;-76
2023/07/08 02:40:24;;;;;;;4.83;2.80;;;17.80;99.90;;;;;;4161814;28;20751;-76
2023/07/08 02:42:26;;;;;;;4.70;2.50;;;17.80;99.90;;;;;;4158560;28;20245;-76
2023/07/08 02:44:29;;;;;;;4.30;3.00;;;17.70;99.90;;;;;;4164152;28;20698;-76
2023/07/08 02:46:30;;;;;;;4.40;2.87;;;17.70;99.90;;;;;;4166359;28;20256;-76
2023/07/08 02:48:32;;;;;;;4.60;2.93;;;17.70;99.90;;;;;;4167554;28;20238;-76
2023/07/08 02:50:34;;;;;;;3.77;2.83;;;17.70;99.90;;;;;;4166372;28;20201;-77
2023/07/08 02:52:36;;;;;;;3.83;2.83;;;17.60;99.90;;;;;;4169864;28;20236;-75
2023/07/08 02:54:38;;;;;;;5.77;3.23;;;17.60;99.90;;;;;;4166289;28;20713;-77
2023/07/08 02:56:40;;;;;;;6.00;3.00;;;17.60;99.90;;;;;;4168637;28;20317;-76
2023/07/08 02:58:42;;;;;;;4.40;2.83;;;17.60;99.90;;;;;;4166230;28;20205;-76
2023/07/08 03:00:45;;;;;;;6.53;3.10;;;17.60;99.90;;;;;;4165245;28;20228;-76
2023/07/08 03:02:47;;;;;;;4.67;2.97;;;17.50;99.90;;;;;;4166951;28;20662;-76
2023/07/08 03:04:49;;;;;;;5.27;3.23;;;17.50;99.90;;;;;;4163903;28;20223;-76
2023/07/08 03:06:52;;;;;;;8.00;3.30;;;17.50;99.90;;;;;;4162686;28;20238;-76
2023/07/08 03:08:54;;;;;;;4.23;3.30;;;17.40;99.90;;;;;;4165437;28;20238;-76
2023/07/08 03:10:58;;;;;;;5.40;3.40;;;17.40;99.90;;;;;;4167428;28;20304;-76
2023/07/08 03:12:59;;;;;;;5.83;3.30;;;17.40;99.90;;;;;;4171027;28;20250;-76
2023/07/08 03:15:02;;;;;;;4.87;3.20;;;17.40;99.90;;;;;;4167941;28;20223;-76
2023/07/08 03:17:06;;;;;;;4.50;2.80;;;17.40;99.90;;;;;;4168977;28;20271;-76
2023/07/08 03:19:11;;;;;;;4.50;3.37;;;17.30;99.90;;;;;;4164683;28;20208;-76
2023/07/08 03:21:14;;;;;;;4.57;2.90;;;17.30;99.90;;;;;;4168260;28;20274;-75
2023/07/08 03:23:15;;;;;;;4.57;2.90;;;17.30;99.90;;;;;;4165120;28;20591;-76
2023/07/08 03:25:19;;;;;;;5.97;3.27;;;17.30;99.90;;;;;;4164853;28;20550;-76
2023/07/08 03:27:21;;;;;;;5.47;2.80;;;17.30;99.90;;;;;;4168174;28;20212;-76
2023/07/08 03:29:23;;;;;;;5.40;3.00;;;17.20;99.90;;;;;;4163208;28;20685;-76
2023/07/08 03:31:25;;;;;;;6.83;3.03;;;17.20;99.90;;;;;;4171272;28;20219;-76
2023/07/08 03:33:28;;;;;;;3.53;2.70;;;17.20;99.90;;;;;;4166928;28;20567;-76
2023/07/08 03:35:31;;;;;;;4.60;3.03;;;17.20;99.90;;;;;;4163675;28;20216;-76
2023/07/08 03:37:32;;;;;;;5.33;3.10;;;17.20;99.90;;;;;;4164528;28;20204;-77
2023/07/08 03:39:34;;;;;;;6.00;3.40;;;17.20;99.90;;;;;;4165576;28;20213;-76
2023/07/08 03:41:36;;;;;;;5.57;3.50;;;17.20;99.90;;;;;;4164844;28;20207;-77
2023/07/08 03:43:38;;;;;;;5.63;3.20;;;17.20;99.90;;;;;;4159203;28;20299;-76
2023/07/08 03:45:40;;;;;;;5.20;3.43;;;17.20;99.90;;;;;;4168030;28;20230;-76
2023/07/08 03:47:42;;;;;;;4.40;3.30;;;17.20;99.90;;;;;;4160967;28;20299;-76
2023/07/08 03:49:45;;;;;;;4.77;3.20;;;17.20;99.90;;;;;;4161986;28;20306;-76
2023/07/08 03:51:47;;;;;;;4.23;3.00;;;17.20;99.90;;;;;;4165387;28;20282;-76
2023/07/08 03:53:49;;;;;;;4.63;3.00;;;17.10;99.90;;;;;;4159436;28;20270;-76
2023/07/08 03:55:51;;;;;;;5.20;3.50;;;17.10;99.90;;;;;;4163820;28;20262;-76
2023/07/08 03:57:52;;;;;;;4.47;2.83;;;17.10;99.90;;;;;;4164830;28;20931;-76
2023/07/08 03:59:54;;;;;;;5.17;3.53;;;17.10;99.90;;;;;;4162506;28;20231;-75
2023/07/08 04:01:55;;;;;;;5.37;3.37;;;17.10;99.90;;;;;;4162237;28;20306;-75
2023/07/08 04:03:58;;;;;;;5.97;3.00;;;17.10;99.90;;;;;;4161891;28;20215;-75
2023/07/08 04:06:01;;;;;;;4.53;3.03;;;17.10;99.90;;;;;;4163878;28;20224;-75
2023/07/08 04:08:03;;;;;;;5.83;3.40;;;17.10;99.90;;;;;;4159492;28;20652;-74
2023/07/08 04:10:06;;;;;;;5.80;3.57;;;17.10;99.90;;;;;;4163420;28;20212;-74
2023/07/08 04:12:09;;;;;;;3.93;3.10;;;17.10;99.90;;;;;;4164819;28;20653;-76
2023/07/08 04:14:12;;;;;;;5.33;3.03;;;17.10;99.90;;;;;;4164922;28;20297;-74
2023/07/08 04:16:19;;;;;;;5.37;3.30;;;17.10;99.90;;;;;;4161039;28;20235;-75
2023/07/08 04:18:21;;;;;;;4.50;3.40;;;17.00;99.90;;;;;;4168165;28;20209;-75
2023/07/08 04:20:23;;;;;;;5.77;3.13;;;17.00;99.90;;;;;;4171925;28;20212;-75
2023/07/08 04:22:26;;;;;;;4.63;3.40;;;17.00;99.90;;;;;;4164753;28;20203;-75
2023/07/08 04:24:28;;;;;;;4.30;3.10;;;17.00;99.90;;;;;;4162862;28;20208;-76
2023/07/08 04:26:30;;;;;;;4.07;3.10;;;17.00;99.90;;;;;;4164509;28;20240;-76
2023/07/08 04:28:32;;;;;;;5.30;3.70;;;17.00;99.90;;;;;;4158886;28;20224;-75
2023/07/08 04:30:40;;;;;;;7.60;3.53;;;17.00;99.90;;;;;;4159313;28;20710;-75
2023/07/08 04:32:42;;;;;;;5.27;3.17;;;17.00;99.90;;;;;;4163977;28;20340;-75
2023/07/08 04:34:44;;;;;;;4.40;3.17;;;17.00;99.90;;;;;;4166980;28;20643;-75
2023/07/08 04:36:46;;;;;;;5.00;3.40;;;17.00;99.90;;;;;;4167476;28;20707;-75
2023/07/08 04:38:49;;;;;;;5.77;3.50;;;17.10;99.90;;;;;;4164929;28;20200;-75
2023/07/08 04:40:51;;;;;;;5.30;3.60;;;17.10;99.90;;;;;;4164883;28;20575;-76
2023/07/08 04:42:52;;;;;;;5.50;4.07;;;17.10;99.90;;;;;;4163813;28;20195;-75
2023/07/08 04:44:54;;;;;;;5.63;3.60;;;17.10;99.90;;;;;;4166090;28;20299;-75
2023/07/08 04:46:58;;;;;;;7.50;3.57;;;17.10;99.90;;;;;;4161130;28;20227;-75
2023/07/08 04:49:00;;;;;;;5.13;3.23;;;17.10;99.90;;;;;;4160610;28;20659;-76
2023/07/08 04:51:02;;;;;;;5.77;3.70;;;17.10;99.90;;;;;;4165510;28;20200;-75
2023/07/08 04:53:04;;;;;;;4.90;3.50;;;17.10;99.90;;;;;;4162844;28;20298;-75
2023/07/08 04:55:09;;;;;;;5.20;3.50;;;17.20;99.90;;;;;;4160612;28;20231;-75
2023/07/08 04:57:11;;;;;;;5.27;3.23;;;17.20;99.90;;;;;;4163027;28;20235;-74
2023/07/08 04:59:16;;;;;;;5.13;3.10;;;17.20;99.90;;;;;;4165950;28;20204;-74
2023/07/08 05:01:18;;;;;;;3.37;2.80;;;17.20;99.90;;;;;;4163913;28;20736;-75
2023/07/08 05:03:20;;;;;;;5.53;3.10;;;17.30;99.90;;;;;;4166534;28;20601;-74
2023/07/08 05:05:22;;;;;;;6.03;3.47;;;17.30;99.90;;;;;;4162834;28;20728;-76
2023/07/08 05:07:23;;;;;;;4.33;2.93;;;17.30;99.90;;;;;;4167387;28;20224;-75
2023/07/08 05:09:26;;;;;;;4.47;3.30;;;17.30;99.90;;;;;;4159736;28;20591;-74
2023/07/08 05:11:30;;;;;;;5.23;3.33;;;17.40;99.90;;;;;;4162346;28;20209;-75
2023/07/08 05:13:32;;;;;;;6.67;3.63;;;17.40;99.90;;;;;;4167161;28;20207;-76
2023/07/08 05:15:35;;;;;;;5.30;3.33;;;17.50;99.90;;;;;;4159343;28;20642;-75
2023/07/08 05:17:39;;;;;;;10.03;3.60;;;17.50;99.90;;;;;;4159553;28;20211;-75
2023/07/08 05:19:44;;;;;;;4.57;2.93;;;17.50;99.90;;;;;;4162067;28;20204;-75
2023/07/08 05:21:45;;;;;;;5.43;3.20;;;17.50;99.90;;;;;;4162281;28;21153;-75
2023/07/08 05:23:49;;;;;;;6.00;3.57;;;17.50;99.90;;;;;;4162703;28;20213;-75
2023/07/08 05:25:51;;;;;;;4.83;3.03;;;17.40;99.90;;;;;;4159967;28;20743;-76
2023/07/08 05:27:54;;;;;;;6.27;3.20;;;17.60;99.90;;;;;;4162363;28;20216;-75
2023/07/08 05:29:56;;;;;;;4.30;2.67;;;17.60;99.90;;;;;;4161318;28;20258;-75
2023/07/08 05:31:58;;;;;;;4.87;3.20;;;17.70;99.90;;;;;;4164555;28;20206;-76
2023/07/08 05:34:00;;;;;;;6.47;3.53;;;17.70;99.90;;;;;;4163918;28;20292;-76
2023/07/08 05:36:02;;;;;;;5.63;3.40;;;17.70;99.90;;;;;;4160205;28;20257;-75
2023/07/08 05:38:04;;;;;;;4.10;3.10;;;17.70;99.90;;;;;;4163821;28;20204;-75
2023/07/08 05:40:07;;;;;;;4.60;3.10;;;17.80;99.90;;;;;;4160907;28;20200;-75
2023/07/08 05:42:09;;;;;;;4.27;2.90;;;17.80;99.90;;;;;;4163885;28;20205;-76
2023/07/08 05:44:12;;;;;;;7.23;3.77;;;17.80;99.90;;;;;;4162118;28;20302;-76
2023/07/08 05:46:14;;;;;;;5.07;3.60;;;17.90;99.90;;;;;;4161148;28;20234;-75
2023/07/08 05:48:17;;;;;;;7.13;3.53;;;17.90;99.90;;;;;;4161797;28;20209;-75
2023/07/08 05:50:19;;;;;;;5.60;3.73;;;17.90;99.90;;;;;;4161859;28;20238;-75
2023/07/08 05:52:20;;;;;;;7.17;4.00;;;18.00;99.90;;;;;;4158568;28;20740;-75
2023/07/08 05:54:22;;;;;;;5.20;3.53;;;18.00;99.90;;;;;;4163905;28;20866;-76
2023/07/08 05:56:23;;;;;;;5.90;3.67;;;18.10;99.90;;;;;;4164300;28;20721;-75
2023/07/08 05:58:25;;;;;;;5.13;3.27;;;18.10;99.90;;;;;;4163848;28;20293;-75
2023/07/08 06:00:29;;;;;;;6.77;3.60;;;18.20;99.90;;;;;;4162698;28;20219;-76
2023/07/08 06:02:30;;;;;;;6.40;3.57;;;18.20;99.90;;;;;;4163034;28;20303;-75
2023/07/08 06:04:32;;;;;;;8.00;3.77;;;18.30;99.90;;;;;;4161370;28;20829;-75
2023/07/08 06:06:34;;;;;;;5.00;3.30;;;18.40;99.90;;;;;;4158285;28;20236;-75
2023/07/08 06:08:36;;;;;;;5.57;3.20;;;18.40;99.90;;;;;;4161378;28;20673;-76
2023/07/08 06:10:43;;;;;;;5.90;3.60;;;18.50;99.90;;;;;;4162870;28;20972;-76
2023/07/08 06:12:46;;;;;;;4.40;2.77;;;18.60;99.90;;;;;;4160549;28;20214;-74
2023/07/08 06:14:48;;;;;;;4.73;3.00;;;18.60;99.90;;;;;;4165544;28;20296;-74
2023/07/08 06:16:55;;;;;;;5.87;3.23;;;18.60;99.90;;;;;;4159972;28;20241;-74
2023/07/08 06:18:57;;;;;;;7.30;3.70;;;18.70;99.90;;;;;;4167932;28;20863;-75
2023/07/08 06:21:00;;;;;;;7.33;3.27;;;18.80;99.90;;;;;;4166445;28;20216;-75
2023/07/08 06:23:02;;;;;;;6.30;3.40;;;18.90;99.90;;;;;;4161868;28;20297;-74
2023/07/08 06:25:04;;;;;;;6.70;3.23;;;18.90;99.90;;;;;;4164477;28;20260;-74
2023/07/08 06:27:07;;;;;;;7.60;3.80;;;19.00;99.90;;;;;;4165187;28;20225;-74
2023/07/08 06:29:09;;;;;;;5.23;3.20;;;19.10;99.90;;;;;;4165079;28;20252;-75
2023/07/08 06:31:11;;;;;;;5.47;3.20;;;19.20;99.90;;;;;;4165818;28;20731;-75
2023/07/08 06:33:13;;;;;;;4.70;3.20;;;19.20;99.90;;;;;;4167543;28;20300;-74
2023/07/08 06:35:15;;;;;;;6.10;2.90;;;19.30;99.90;;;;;;4167839;28;20237;-76
2023/07/08 06:37:17;;;;;;;3.53;2.60;;;19.40;99.90;;;;;;4163059;28;20244;-75
2023/07/08 06:39:20;;;;;;;4.67;2.80;;;19.40;99.90;;;;;;4162593;28;20283;-76
2023/07/08 06:41:22;;;;;;;5.33;2.50;;;19.50;99.90;;;;;;4165687;28;20214;-76
2023/07/08 06:43:24;;;;;;;4.60;2.80;;;19.50;99.90;;;;;;4165418;28;20236;-75
2023/07/08 06:45:26;;;;;;;6.23;3.03;;;19.60;99.90;;;;;;4165858;28;20205;-75
2023/07/08 06:47:28;;;;;;;4.23;2.97;;;19.70;99.90;;;;;;4164978;28;20618;-75
2023/07/08 06:49:31;;;;;;;3.37;2.40;;;19.80;99.90;;;;;;4165097;28;20616;-75
2023/07/08 06:51:33;;;;;;;4.77;2.57;;;19.80;99.90;;;;;;4164531;28;20218;-75
2023/07/08 06:53:34;;;;;;;5.40;3.17;;;19.90;99.90;;;;;;4169676;28;20298;-74
2023/07/08 06:55:35;;;;;;;4.20;2.93;;;20.00;99.90;;;;;;4164652;28;20303;-75
2023/07/08 06:57:38;;;;;;;5.20;3.20;;;20.10;99.90;;;;;;4165799;28;20726;-74
2023/07/08 06:59:40;;;;;;;5.97;3.50;;;20.20;99.90;;;;;;4163868;28;20657;-74
2023/07/08 07:01:42;;;;;;;4.33;3.30;;;20.20;99.90;;;;;;4169011;28;20230;-76
2023/07/08 07:03:48;;;;;;;5.40;3.33;;;20.40;99.90;;;;;;4164653;28;20238;-76
2023/07/08 07:05:51;;;;;;;4.87;3.07;;;20.50;99.90;;;;;;4165849;28;20229;-76
2023/07/08 07:07:53;;;;;;;4.00;2.80;;;20.60;99.90;;;;;;4165704;28;20239;-76
2023/07/08 07:09:55;;;;;;;5.10;3.10;;;20.70;99.90;;;;;;4164877;28;20254;-77
2023/07/08 07:11:57;;;;;;;6.47;3.30;;;20.80;99.90;;;;;;4163054;28;20215;-76
2023/07/08 07:13:59;;;;;;;4.43;3.00;;;21.00;99.90;;;;;;4166392;28;20211;-75
2023/07/08 07:16:04;;;;;;;3.37;2.73;;;21.10;99.90;;;;;;4169192;28;20245;-75
2023/07/08 07:18:06;;;;;;;4.63;2.90;;;21.20;99.90;;;;;;4165394;28;20203;-75
2023/07/08 07:20:09;;;;;;;4.53;3.10;;;21.20;99.90;;;;;;4164818;28;20662;-74
2023/07/08 07:22:12;;;;;;;4.13;2.77;;;21.30;99.90;;;;;;4163535;28;20207;-75
2023/07/08 07:24:14;;;;;;;3.90;2.50;;;21.40;99.90;;;;;;4165177;28;20329;-75
2023/07/08 07:26:16;;;;;;;3.43;2.67;;;21.40;99.90;;;;;;4168540;28;20256;-75
2023/07/08 07:28:17;;;;;;;5.30;3.20;;;21.50;99.90;;;;;;4164632;28;20211;-75
2023/07/08 07:30:21;;;;;;;5.47;3.33;;;21.60;99.90;;;;;;4171907;28;20711;-75
2023/07/08 07:32:24;;;;;;;5.30;3.20;;;21.70;99.90;;;;;;4167946;28;20218;-77
2023/07/08 07:34:26;;;;;;;5.70;3.33;;;21.70;99.90;;;;;;4166269;28;20208;-75
2023/07/08 07:36:28;;;;;;;5.07;3.20;;;21.80;99.90;;;;;;4168516;28;20228;-75
2023/07/08 07:38:34;;;;;;;5.10;2.90;;;21.90;99.90;;;;;;4167071;28;20203;-75
2023/07/08 07:40:36;;;;;;;5.40;3.10;;;22.00;99.90;;;;;;4171198;28;20209;-75
2023/07/08 07:42:38;;;;;;;4.63;3.20;;;22.10;99.90;;;;;;4164753;28;20221;-76
2023/07/08 07:44:40;;;;;;;5.20;3.30;;;22.20;99.90;;;;;;4162915;28;20678;-75
2023/07/08 07:46:42;;;;;;;5.30;3.40;;;22.30;99.90;;;;;;4165936;28;20277;-78
2023/07/08 07:48:44;;;;;;;6.90;3.60;;;22.50;99.90;;;;;;4166827;28;20308;-75
2023/07/08 07:50:47;;;;;;;4.10;2.80;;;22.50;99.90;;;;;;4165131;28;20295;-74
2023/07/08 07:52:49;;;;;;;4.27;3.17;;;22.70;99.90;;;;;;4166514;28;20674;-74
2023/07/08 07:54:53;;;;;;;3.43;2.73;;;22.80;99.90;;;;;;4165165;28;20300;-76
2023/07/08 07:56:55;;;;;;;4.33;2.87;;;22.90;99.90;;;;;;4161895;28;20753;-76
2023/07/08 07:58:57;;;;;;;4.67;2.93;;;23.00;99.90;;;;;;4163433;28;20239;-75
2023/07/08 08:00:59;;;;;;;5.73;3.17;;;23.10;99.90;;;;;;4163751;28;20292;-74
2023/07/08 08:03:01;;;;;;;4.97;3.33;;;23.30;99.70;;;;;;4161072;28;20220;-74
2023/07/08 08:05:03;;;;;;;10.13;3.30;;;23.40;96.50;;;;;;4166569;28;20207;-74
2023/07/08 08:07:05;;;;;;;5.33;3.03;;;23.50;93.30;;;;;;4163839;28;20335;-74
2023/07/08 08:09:08;;;;;;;6.80;3.30;;;23.60;92.70;;;;;;4165951;28;20207;-75
2023/07/08 08:11:11;;;;;;;7.30;3.30;;;23.70;92.30;;;;;;4165876;28;20241;-74
2023/07/08 08:13:13;;;;;;;7.13;3.47;;;23.70;91.10;;;;;;4166824;28;20668;-75
2023/07/08 08:15:15;;;;;;;6.53;3.40;;;23.80;92.00;;;;;;4163832;28;20229;-75
2023/07/08 08:17:17;;;;;;;4.70;3.20;;;23.80;88.30;;;;;;4162351;28;20231;-75
2023/07/08 08:19:19;;;;;;;4.07;2.60;;;23.80;89.00;;;;;;4162558;28;20764;-75
2023/07/08 08:21:21;;;;;;;5.00;3.20;;;23.90;88.60;;;;;;4163679;28;20290;-75
2023/07/08 08:23:24;;;;;;;4.77;3.03;;;23.90;88.10;;;;;;4165811;28;20211;-75
2023/07/08 08:25:26;;;;;;;6.00;3.33;;;24.00;85.30;;;;;;4165914;28;20215;-74
2023/07/08 08:27:30;;;;;;;3.23;2.50;;;24.00;87.20;;;;;;4162787;28;20204;-75
2023/07/08 08:29:32;;;;;;;4.53;3.03;;;24.10;83.60;;;;;;4169343;28;20293;-75
2023/07/08 08:31:33;;;;;;;4.53;3.20;;;24.10;81.40;;;;;;4162895;28;20231;-75
2023/07/08 08:33:35;;;;;;;5.80;3.17;;;24.20;77.80;;;;;;4168900;28;20576;-75
2023/07/08 08:35:37;;;;;;;5.57;3.30;;;24.30;77.00;;;;;;4164272;28;20215;-76
2023/07/08 08:37:42;;;;;;;4.37;3.07;;;24.30;77.10;;;;;;4164277;28;20295;-75
2023/07/08 08:39:44;;;;;;;4.30;3.00;;;24.40;74.90;;;;;;4159627;28;20552;-75
2023/07/08 08:41:46;;;;;;;5.07;3.30;;;24.50;71.50;;;;;;4160682;28;20218;-75
2023/07/08 08:43:50;;;;;;;6.03;3.40;;;24.60;64.90;;;;;;4163391;28;20207;-74
2023/07/08 08:45:58;;;;;;;4.87;3.27;;;24.70;62.70;;;;;;4160278;28;20243;-74
2023/07/08 08:48:04;;;;;;;6.43;3.63;;;24.80;59.80;;;;;;4162213;28;21696;-75
2023/07/08 08:50:27;;;;;;;5.20;2.93;;;24.90;59.60;;;;;;4164068;28;20226;-75
2023/07/08 08:52:28;;;;;;;4.27;2.83;;;25.00;59.20;;;;;;4160644;28;20333;-76
2023/07/08 08:54:31;;;;;;;6.67;2.80;;;25.10;59.30;;;;;;4162319;28;20254;-76
2023/07/08 08:56:40;;;;;;;4.70;3.17;;;25.20;58.30;;;;;;4161893;28;20233;-76
2023/07/08 08:58:45;;;;;;;4.47;2.93;;;25.40;57.90;;;;;;4163017;28;20813;-75
2023/07/08 09:00:54;;;;;;;4.87;3.13;;;25.50;54.90;;;;;;4161624;28;20205;-75
2023/07/08 09:03:02;;;;;;;6.53;3.30;;;25.60;53.00;;;;;;4162200;28;20301;-75
2023/07/08 09:05:07;;;;;;;4.30;3.00;;;25.70;51.70;;;;;;4164211;28;20734;-75
2023/07/08 09:07:17;;;;;;;5.47;3.10;;;25.80;52.20;;;;;;4162718;28;20309;-75
2023/07/08 09:09:22;;;;;;;4.53;3.30;;;25.90;50.00;;;;;;4161676;28;20660;-74
2023/07/08 09:11:37;;;;;;;4.37;3.30;;;26.10;47.00;;;;;;4169181;28;20737;-75
2023/07/08 09:13:39;;;;;;;4.90;3.07;;;26.30;46.50;;;;;;4166793;28;20211;-75
2023/07/08 09:15:40;;;;;;;4.90;3.00;;;26.30;46.00;;;;;;4165334;28;20458;-76
2023/07/08 09:17:44;;;;;;;4.40;3.00;;;26.40;45.90;;;;;;4164220;28;20239;-76
2023/07/08 09:19:51;;;;;;;3.97;2.83;;;26.50;45.70;;;;;;4164672;28;20211;-75
2023/07/08 09:22:03;;;;;;;6.97;3.37;;;26.70;44.80;;;;;;4162560;28;20242;-78
2023/07/08 09:24:13;;;;;;;6.13;3.17;;;26.80;43.50;;;;;;4159757;28;20253;-76
2023/07/08 09:26:18;;;;;;;4.67;3.17;;;26.90;42.20;;;;;;4162382;28;20230;-76
2023/07/08 09:28:20;;;;;;;4.57;3.10;;;27.10;42.10;;;;;;4160945;28;20211;-74
2023/07/08 09:30:28;;;;;;;4.77;3.23;;;27.30;41.20;;;;;;4163469;28;20225;-76
2023/07/08 09:32:33;;;;;;;4.63;3.53;;;27.40;40.60;;;;;;4161035;28;20302;-77
2023/07/08 09:34:46;;;;;;;5.07;3.07;;;27.60;39.70;;;;;;4162248;28;20207;-75
2023/07/08 09:36:52;;;;;;;5.80;3.13;;;27.70;39.80;;;;;;4163950;28;20321;-77
2023/07/08 09:38:54;;;;;;;6.00;3.40;;;27.90;39.20;;;;;;4162493;28;20207;-77
2023/07/08 09:40:57;;;;;;;4.07;3.23;;;28.00;38.40;;;;;;4161762;28;20867;-74
2023/07/08 09:43:02;;;;;;;8.57;3.23;;;28.10;38.20;;;;;;4166346;28;20236;-74
2023/07/08 09:45:13;;;;;;;4.37;3.07;;;28.20;38.60;;;;;;4168139;28;20206;-74
2023/07/08 09:47:24;;;;;;;4.80;3.27;;;28.30;37.60;;;;;;4167103;28;20257;-74
2023/07/08 09:49:29;;;;;;;4.40;2.97;;;28.30;37.50;;;;;;4164932;28;20575;-74
2023/07/08 09:51:33;;;;;;;4.22;2.90;;;28.40;37.60;;;;;;4167541;28;20322;-75
2023/07/08 09:53:35;;;;;;;6.45;3.63;;;28.40;37.30;;;;;;4162369;28;20622;-74
2023/07/08 09:55:37;;;;;;;5.97;3.20;;;28.50;37.10;;;;;;4163575;28;20214;-75
2023/07/08 09:57:39;;;;;;;4.78;3.65;;;28.50;37.60;;;;;;4160411;28;20207;-74
2023/07/08 09:59:47;;;;;;;4.28;3.35;;;28.50;37.70;;;;;;4165045;28;20195;-75
2023/07/08 10:01:49;;;;;;;4.65;3.15;;;28.60;37.60;;;;;;4164721;28;20301;-74
2023/07/08 10:03:51;;;;;;;4.55;3.28;;;28.60;37.50;;;;;;4162933;28;20294;-75
2023/07/08 10:05:57;;;;;;;6.07;3.60;;;28.70;37.10;;;;;;4159003;28;20272;-75
2023/07/08 10:08:03;;;;;;;7.53;3.17;;;28.70;37.00;;;;;;4161052;28;20203;-74
2023/07/08 10:10:08;;;;;;;3.80;3.00;;;28.70;37.40;;;;;;4162686;28;20210;-74
2023/07/08 10:12:14;;;;;;;4.93;3.47;;;28.70;36.60;;;;;;4162884;28;20298;-74
2023/07/08 10:14:26;;;;;;;3.70;3.15;;;28.70;36.50;;;;;;4163505;28;20235;-75
2023/07/08 10:16:30;;;;;;;5.18;3.28;;;28.70;36.50;;;;;;4163520;28;20321;-74
2023/07/08 10:18:32;;;;;;;4.72;3.15;;;28.70;36.80;;;;;;4164144;28;20669;-74
2023/07/08 10:20:46;;;;;;;5.13;3.53;;;28.80;37.00;;;;;;4165279;28;20202;-75
2023/07/08 10:22:58;;;;;;;6.55;3.33;;;28.90;36.50;;;;;;4164720;28;20648;-74
2023/07/08 10:25:13;;;;;;;4.75;3.17;;;28.90;36.60;;;;;;4162546;28;20292;-75
2023/07/08 10:27:28;;;;;;;4.93;3.57;;;29.10;36.60;;;;;;4161738;28;20228;-76
2023/07/08 10:29:34;;;;;;;6.13;3.10;;;29.20;35.90;;;;;;4162235;28;20213;-76
2023/07/08 10:31:45;;;;;;;4.70;3.60;;;29.20;35.20;;;;;;4160706;28;20231;-75
2023/07/08 10:34:00;;;;;;;5.07;3.15;;;29.30;33.90;;;;;;4162800;28;20206;-76
2023/07/08 10:36:20;;;;;;;4.80;3.30;;;29.40;34.20;;;;;;4159755;28;20690;-76
2023/07/08 10:38:40;;;;;;;4.45;3.10;;;29.50;34.40;;;;;;4161527;28;20679;-75
2023/07/08 10:40:49;;;;;;;7.32;3.35;;;29.70;34.00;;;;;;4165367;28;20214;-75
2023/07/08 10:43:05;;;;;;;5.95;3.40;;;29.80;33.70;;;;;;4162875;28;20217;-76
2023/07/08 10:45:13;;;;;;;6.57;3.53;;;29.90;33.90;;;;;;4162990;28;20973;-75